Time;durP1;ratioP1;P1;durP2;ratioP2;P2;SDS_P1;SDS_P2;PMS_P1;PMS_P2;Temp;Humidity;BMP_temperature;BMP_pressure;BME280_temperature;BME280_humidity;BME280_pressure;Samples;Min_cycle;Max_cycle;Signal;HPM_P1;HPM_P2
2024/01/30 05:22:33;;;;;;;7.35;4.20;;;;;;;-0.91;100.00;101748.06;5084401;28;20340;-35
2024/01/30 05:24:58;;;;;;;7.18;4.47;;;;;;;-0.88;100.00;101753.56;5089396;28;20097;-33
2024/01/30 05:27:24;;;;;;;5.05;4.03;;;;;;;-0.79;100.00;101745.00;5088890;28;20245;-32
2024/01/30 05:29:49;;;;;;;5.22;3.97;;;;;;;-0.82;100.00;101752.03;5083056;28;20120;-32
2024/01/30 05:32:15;;;;;;;6.15;4.55;;;;;;;-0.76;100.00;101749.72;5068761;28;20041;-37
2024/01/30 05:34:40;;;;;;;5.65;4.65;;;;;;;-0.67;100.00;101749.34;5068715;28;20546;-32
2024/01/30 05:37:06;;;;;;;5.05;3.72;;;;;;;-0.74;100.00;101759.13;5068663;28;20479;-32
2024/01/30 05:39:32;;;;;;;5.30;4.28;;;;;;;-0.77;100.00;101761.84;5064734;28;20472;-32
2024/01/30 05:41:58;;;;;;;5.13;4.18;;;;;;;-0.84;100.00;101761.81;5069296;28;20484;-33
2024/01/30 05:44:23;;;;;;;8.23;5.47;;;;;;;-0.76;100.00;101766.16;5070340;28;20071;-32
2024/01/30 05:46:49;;;;;;;5.85;4.30;;;;;;;-0.80;100.00;101763.41;5068130;28;20400;-36
2024/01/30 05:49:14;;;;;;;7.82;4.70;;;;;;;-0.80;100.00;101770.84;5066817;28;20059;-33
2024/01/30 05:51:39;;;;;;;7.70;4.50;;;;;;;-0.83;100.00;101768.88;5068354;28;20037;-33
2024/01/30 05:54:05;;;;;;;5.97;4.15;;;;;;;-0.80;100.00;101773.59;5068428;28;20123;-37
2024/01/30 05:56:30;;;;;;;7.03;5.20;;;;;;;-0.62;100.00;101777.19;5068332;28;20044;-32
2024/01/30 05:58:55;;;;;;;6.43;4.88;;;;;;;-0.62;100.00;101777.19;5068120;28;20492;-33
2024/01/30 06:01:21;;;;;;;6.57;4.75;;;;;;;-0.80;100.00;101773.59;5067620;28;20617;-37
2024/01/30 06:03:46;;;;;;;6.45;4.68;;;;;;;-0.84;100.00;101775.50;5066535;28;20029;-34
2024/01/30 06:06:12;;;;;;;6.20;4.80;;;;;;;-0.80;100.00;101773.59;5067162;28;20454;-33
2024/01/30 06:08:37;;;;;;;5.72;4.43;;;;;;;-0.66;100.00;101773.66;5067171;28;20116;-36
2024/01/30 06:11:02;;;;;;;7.95;4.85;;;;;;;-0.75;100.00;101771.25;5067506;28;20033;-32
2024/01/30 06:13:30;;;;;;;6.82;4.85;;;;;;;-0.78;100.00;101765.75;5067468;28;20546;-33
2024/01/30 06:15:55;;;;;;;7.65;4.47;;;;;;;-0.84;100.00;101772.75;5067312;28;20032;-36
2024/01/30 06:18:21;;;;;;;5.60;4.55;;;;;;;-0.91;100.00;101772.72;5067514;28;20463;-34
2024/01/30 06:20:47;;;;;;;7.80;4.72;;;;;;;-0.94;100.00;101777.81;5067730;28;20029;-33
2024/01/30 06:23:12;;;;;;;9.07;4.75;;;;;;;-0.80;100.00;101776.31;5067848;28;20403;-32
2024/01/30 06:25:38;;;;;;;8.45;4.93;;;;;;;-0.84;100.00;101779.03;5067707;28;20024;-33
2024/01/30 06:28:04;;;;;;;6.65;5.00;;;;;;;-0.72;100.00;101777.91;5067463;28;20408;-35
2024/01/30 06:30:29;;;;;;;7.18;4.80;;;;;;;-0.71;100.00;101776.75;5067489;28;20116;-37
2024/01/30 06:32:54;;;;;;;7.15;4.97;;;;;;;-0.60;100.00;101774.06;5059893;28;20476;-33
2024/01/30 06:35:21;;;;;;;7.80;5.13;;;;;;;-0.75;100.00;101775.94;5054354;28;21435;-34
2024/01/30 06:37:46;;;;;;;7.40;5.25;;;;;;;-0.78;100.00;101776.72;5054070;28;20526;-34
2024/01/30 06:40:12;;;;;;;7.88;5.43;;;;;;;-0.76;100.00;101766.16;5054121;28;20127;-35
2024/01/30 06:42:38;;;;;;;7.88;4.82;;;;;;;-0.65;100.00;101777.16;5054159;28;20033;-35
2024/01/30 06:45:03;;;;;;;8.50;5.03;;;;;;;-0.66;100.00;101764.63;5054209;28;20025;-33
2024/01/30 06:47:30;;;;;;;6.88;4.82;;;;;;;-0.62;100.00;101781.88;5053789;28;20037;-34
2024/01/30 06:49:56;;;;;;;8.07;6.20;;;;;;;-0.68;100.00;101770.50;5053936;28;20044;-36
2024/01/30 06:52:21;;;;;;;8.25;5.82;;;;;;;-0.80;100.00;101773.59;5053412;28;20500;-32
2024/01/30 06:54:47;;;;;;;6.53;4.97;;;;;;;-0.77;100.00;101770.06;5051357;28;20381;-33
2024/01/30 06:57:14;;;;;;;8.45;4.50;;;;;;;-0.66;100.00;101784.59;5052809;28;20048;-33
2024/01/30 06:59:43;;;;;;;7.13;4.63;;;;;;;-0.71;100.00;101776.75;5053550;28;20498;-33
2024/01/30 07:02:12;;;;;;;6.82;4.68;;;;;;;-0.65;100.00;101780.69;5053475;28;20481;-34
2024/01/30 07:04:39;;;;;;;4.43;4.00;;;;;;;-0.57;100.00;101787.00;5053684;28;20057;-33
2024/01/30 07:07:05;;;;;;;6.22;4.20;;;;;;;-0.44;100.00;101779.22;5053572;28;20404;-34
2024/01/30 07:09:31;;;;;;;22.50;11.77;;;;;;;-0.41;100.00;101784.72;5053552;28;20148;-33
2024/01/30 07:11:58;;;;;;;22.63;13.07;;;;;;;-0.25;100.00;101781.63;5053652;28;20041;-35
2024/01/30 07:14:24;;;;;;;8.52;6.25;;;;;;;-0.07;100.00;101787.16;5053543;28;20037;-33
2024/01/30 07:16:50;;;;;;;6.82;4.78;;;;;;;-0.20;100.00;101794.94;5053412;28;20500;-34
2024/01/30 07:19:15;;;;;;;7.38;4.57;;;;;;;-147.11;100.00;72537.44;5053356;28;20559;-33
2024/01/30 07:21:40;;;;;;;6.80;4.43;;;;;;;-147.11;100.00;72537.44;5053318;28;20037;-35
2024/01/30 07:24:06;;;;;;;7.88;5.15;;;;;;;-147.11;100.00;72537.44;5053482;28;20037;-33
2024/01/30 07:26:31;;;;;;;7.15;5.35;;;;;;;-147.11;100.00;72537.44;5053178;28;20124;-33
2024/01/30 07:28:57;;;;;;;5.72;4.30;;;;;;;-147.11;100.00;72537.44;5053089;28;20041;-34
2024/01/30 07:31:23;;;;;;;4.50;3.63;;;;;;;-147.11;100.00;72537.44;5053193;28;20175;-38
2024/01/30 07:33:48;;;;;;;7.80;4.20;;;;;;;-147.11;100.00;72537.44;5053272;28;20044;-38
2024/01/30 07:36:14;;;;;;;5.78;4.47;;;;;;;1.25;100.00;101800.84;5053229;28;20029;-34
2024/01/30 07:38:40;;;;;;;6.35;3.67;;;;;;;1.32;100.00;101811.84;5053035;28;20033;-33
2024/01/30 07:41:05;;;;;;;6.63;3.92;;;;;;;1.58;100.00;101802.31;5053124;28;20507;-33
2024/01/30 07:43:31;;;;;;;5.95;4.10;;;;;;;1.73;100.00;101802.22;5052679;28;20041;-34
2024/01/30 07:45:56;;;;;;;6.30;3.97;;;;;;;1.95;100.00;101800.16;5052482;28;20037;-33
2024/01/30 07:48:21;;;;;;;5.90;3.80;;;;;;;2.33;100.00;101798.34;5052812;28;20044;-33
2024/01/30 07:50:47;;;;;;;5.65;4.00;;;;;;;2.80;100.00;101794.00;5052906;28;20033;-42
2024/01/30 07:53:12;;;;;;;5.45;4.15;;;;;;;3.12;100.00;101801.19;5053233;28;20123;-33
2024/01/30 07:55:38;;;;;;;8.85;4.05;;;;;;;3.70;100.00;101804.06;5052872;28;20576;-33
2024/01/30 07:58:04;;;;;;;5.80;4.85;;;;;;;3.76;100.00;101802.41;5052609;28;20033;-33
2024/01/30 08:00:30;;;;;;;7.68;4.45;;;;;;;3.97;95.46;101802.09;5052629;28;20039;-34
2024/01/30 08:02:55;;;;;;;6.85;4.70;;;;;;;3.35;99.21;101802.53;5052743;28;20544;-34
2024/01/30 08:05:24;;;;;;;6.15;4.32;;;;;;;3.35;100.00;101808.81;5052648;28;20041;-36
2024/01/30 08:07:50;;;;;;;7.13;3.88;;;;;;;3.78;97.05;101805.53;5052321;28;20037;-34
2024/01/30 08:10:15;;;;;;;8.52;4.40;;;;;;;3.89;98.12;101805.41;5052642;28;20115;-35
2024/01/30 08:12:41;;;;;;;7.78;4.82;;;;;;;4.82;90.96;101803.97;5052620;28;20096;-35
2024/01/30 08:15:07;;;;;;;7.80;5.07;;;;;;;4.93;90.71;101815.59;5052615;28;20566;-34
2024/01/30 08:17:33;;;;;;;6.93;4.35;;;;;;;5.38;85.42;101815.16;5052325;28;20566;-35
2024/01/30 08:19:58;;;;;;;5.43;3.83;;;;;;;6.29;78.99;101818.38;5052406;28;20033;-33
2024/01/30 08:22:24;;;;;;;6.07;4.05;;;;;;;6.29;77.09;101821.97;5052212;28;20049;-33
2024/01/30 08:24:49;;;;;;;5.72;4.28;;;;;;;6.19;79.68;101819.41;5052717;28;20040;-34
2024/01/30 08:27:15;;;;;;;6.45;4.75;;;;;;;6.13;79.23;101818.38;5052083;28;20497;-33
2024/01/30 08:29:40;;;;;;;6.55;4.50;;;;;;;6.04;78.05;101825.28;5052120;28;20041;-34
2024/01/30 08:32:06;;;;;;;6.05;4.28;;;;;;;5.64;81.27;101824.53;5052248;28;20055;-37
2024/01/30 08:34:32;;;;;;;6.10;4.32;;;;;;;6.80;76.57;101823.50;5052066;28;20523;-35
2024/01/30 08:36:57;;;;;;;5.65;4.32;;;;;;;7.50;71.31;101822.81;5050783;28;20044;-40
2024/01/30 08:39:23;;;;;;;4.50;3.65;;;;;;;6.30;77.87;101828.28;5049904;28;20040;-33
2024/01/30 08:41:48;;;;;;;6.82;4.70;;;;;;;5.53;84.18;101827.53;5050111;28;20552;-34
2024/01/30 08:44:13;;;;;;;5.03;4.05;;;;;;;5.60;85.66;101830.13;5050182;28;20036;-40
2024/01/30 08:46:39;;;;;;;6.00;3.40;;;;;;;4.96;91.45;101831.34;5048612;28;20532;-37
2024/01/30 08:49:04;;;;;;;5.43;3.25;;;;;;;4.57;96.33;101827.25;5048454;28;20492;-35
2024/01/30 08:51:30;;;;;;;6.18;3.67;;;;;;;4.97;94.96;101827.38;5050445;28;20048;-36
2024/01/30 08:53:56;;;;;;;5.25;4.15;;;;;;;4.67;98.69;101826.31;5051910;28;20507;-40
2024/01/30 08:56:21;;;;;;;6.28;3.72;;;;;;;4.92;97.24;101836.16;5051507;28;20104;-34
2024/01/30 08:58:47;;;;;;;4.55;3.35;;;;;;;4.65;96.82;101842.56;5051582;28;20531;-33
2024/01/30 09:01:12;;;;;;;3.72;3.35;;;;;;;4.51;100.00;101836.47;5051591;28;20122;-32
2024/01/30 09:03:40;;;;;;;4.13;3.47;;;;;;;4.55;100.00;101843.47;5051744;28;20040;-38
2024/01/30 09:06:09;;;;;;;4.82;3.53;;;;;;;4.64;100.00;101835.44;5051885;28;20040;-51
2024/01/30 09:08:34;;;;;;;3.45;3.15;;;;;;;3.92;100.00;101832.19;5051614;28;20171;-35
2024/01/30 09:11:00;;;;;;;5.22;3.60;;;;;;;3.92;100.00;101840.47;5051428;28;20101;-37
2024/01/30 09:13:25;;;;;;;3.60;3.15;;;;;;;4.08;100.00;101837.88;5051567;28;20127;-33
2024/01/30 09:15:50;;;;;;;5.00;3.58;;;;;;;4.69;100.00;101831.44;5051595;28;20033;-35
2024/01/30 09:18:16;;;;;;;6.03;3.88;;;;;;;4.65;100.00;101834.25;5051325;28;20047;-34
2024/01/30 09:20:41;;;;;;;5.03;3.67;;;;;;;5.14;100.00;101831.81;5051196;28;20053;-33
2024/01/30 09:23:07;;;;;;;4.68;3.60;;;;;;;5.26;99.20;101835.16;5051564;28;20823;-34
2024/01/30 09:25:32;;;;;;;3.72;3.20;;;;;;;5.16;100.00;101842.44;5051481;28;20090;-38
2024/01/30 09:27:58;;;;;;;5.80;4.25;;;;;;;5.44;100.00;101854.22;5059398;28;20032;-34
2024/01/30 09:30:24;;;;;;;4.13;3.53;;;;;;;5.71;100.00;101856.81;5051531;28;20436;-33
2024/01/30 09:32:49;;;;;;;3.83;3.35;;;;;;;5.89;98.72;101862.78;5051504;28;20037;-34
2024/01/30 09:35:15;;;;;;;4.40;3.70;;;;;;;5.83;99.05;101847.88;5051613;28;20033;-34
2024/01/30 09:37:40;;;;;;;4.63;3.47;;;;;;;6.26;95.56;101852.50;5051221;28;20037;-38
2024/01/30 09:40:07;;;;;;;5.85;3.83;;;;;;;6.48;93.76;101844.47;5051357;28;20040;-35
2024/01/30 09:42:36;;;;;;;5.28;4.07;;;;;;;7.12;88.01;101836.56;5049846;28;20045;-35
2024/01/30 09:45:03;;;;;;;6.82;4.32;;;;;;;7.19;85.67;101834.38;5051430;28;20036;-34
2024/01/30 09:47:42;;;;;;;6.80;4.57;;;;;;;7.19;85.14;101833.59;5051353;28;20040;-35
2024/01/30 09:50:10;;;;;;;6.65;4.53;;;;;;;7.49;84.17;101834.38;5051298;28;20043;-33
2024/01/30 09:52:35;;;;;;;7.90;5.32;;;;;;;7.35;86.04;101830.78;5051229;28;20045;-34
2024/01/30 09:55:02;;;;;;;8.80;5.78;;;;;;;7.40;88.95;101835.78;5051167;28;20106;-37
2024/01/30 09:57:27;;;;;;;7.85;5.60;;;;;;;7.49;89.41;101843.50;5050583;28;20033;-34
2024/01/30 09:59:54;;;;;;;8.20;5.80;;;;;;;7.80;87.31;101845.78;5051160;28;20036;-38
2024/01/30 10:02:19;;;;;;;6.90;5.40;;;;;;;8.22;85.52;101835.41;5050962;28;20090;-34
2024/01/30 10:04:48;;;;;;;8.20;6.07;;;;;;;8.01;83.60;101842.38;5051065;28;20033;-37
2024/01/30 10:07:14;;;;;;;7.70;5.75;;;;;;;7.33;90.71;101841.53;5051265;28;20115;-35
2024/01/30 10:09:40;;;;;;;7.90;6.20;;;;;;;7.21;95.21;101845.03;5054652;28;20032;-34
2024/01/30 10:12:06;;;;;;;7.35;5.97;;;;;;;7.46;88.12;101847.91;5054976;28;20484;-35
2024/01/30 10:14:31;;;;;;;9.77;7.47;;;;;;;8.05;86.67;101848.59;5054714;28;20420;-37
2024/01/30 10:17:01;;;;;;;8.23;6.35;;;;;;;7.85;88.70;101859.13;5054752;28;20029;-37
2024/01/30 10:19:26;;;;;;;7.57;6.25;;;;;;;8.00;88.15;101863.06;5054605;28;20556;-33
2024/01/30 10:21:53;;;;;;;7.43;6.28;;;;;;;8.26;85.10;101863.09;5054634;28;20116;-33
2024/01/30 10:24:18;;;;;;;7.97;6.07;;;;;;;7.93;86.44;101872.38;5054547;28;20427;-33
2024/01/30 10:26:44;;;;;;;7.35;6.30;;;;;;;8.08;87.35;101863.63;5054523;28;20032;-33
2024/01/30 10:29:09;;;;;;;8.75;6.82;;;;;;;8.07;85.51;101853.72;5054314;28;20037;-36
2024/01/30 10:31:35;;;;;;;9.85;6.70;;;;;;;8.51;81.17;101854.78;5054376;28;20045;-33
2024/01/30 10:34:00;;;;;;;9.77;6.90;;;;;;;7.80;87.13;101859.66;5054470;28;20037;-34
2024/01/30 10:36:31;;;;;;;8.07;6.72;;;;;;;8.12;85.49;101865.09;5054390;28;20090;-34
2024/01/30 10:38:59;;;;;;;10.15;6.57;;;;;;;8.75;81.47;101851.63;5054092;28;20032;-34
2024/01/30 10:41:31;;;;;;;7.80;6.07;;;;;;;9.17;80.01;101854.19;5054243;28;20112;-33
2024/01/30 10:44:08;;;;;;;9.20;6.47;;;;;;;9.70;73.55;101849.50;5054214;28;20093;-34
2024/01/30 10:46:37;;;;;;;8.30;5.72;;;;;;;9.24;72.18;101849.13;5054175;28;20033;-36
2024/01/30 10:49:04;;;;;;;6.75;5.20;;;;;;;8.97;76.11;101848.91;5053981;28;20489;-33
2024/01/30 10:51:31;;;;;;;7.50;5.40;;;;;;;9.60;69.73;101845.09;5053867;28;20038;-33
2024/01/30 10:53:57;;;;;;;8.15;4.95;;;;;;;10.24;67.00;101845.44;5054012;28;20059;-33
2024/01/30 10:56:23;;;;;;;5.63;4.78;;;;;;;10.18;66.85;101841.72;5053841;28;20033;-34
2024/01/30 10:58:53;;;;;;;7.97;5.18;;;;;;;10.34;65.37;101839.94;5053708;28;20119;-35
2024/01/30 11:01:20;;;;;;;6.82;4.60;;;;;;;9.96;67.41;101836.19;5053882;28;20162;-34
2024/01/30 11:03:46;;;;;;;5.82;4.82;;;;;;;9.71;69.35;101834.31;5053907;28;20075;-34
2024/01/30 11:06:18;;;;;;;8.70;4.78;;;;;;;10.37;65.67;101839.00;5053791;28;20036;-35
2024/01/30 11:08:43;;;;;;;6.25;5.10;;;;;;;9.99;66.94;101837.28;5053794;28;20096;-34
2024/01/30 11:11:09;;;;;;;6.00;4.50;;;;;;;9.07;72.63;101836.63;5053675;28;20477;-36
2024/01/30 11:13:35;;;;;;;8.02;5.13;;;;;;;9.66;70.68;101831.34;5053942;28;20074;-34
2024/01/30 11:16:05;;;;;;;5.03;4.53;;;;;;;10.19;66.19;101825.75;5053699;28;20040;-34
2024/01/30 11:18:31;;;;;;;8.63;5.07;;;;;;;10.73;64.71;101822.38;5053215;28;20029;-35
2024/01/30 11:20:58;;;;;;;6.38;5.10;;;;;;;10.34;65.72;101823.97;5053450;28;20033;-34
2024/01/30 11:23:26;;;;;;;6.20;4.70;;;;;;;11.32;61.61;101813.88;5053538;28;20703;-33
2024/01/30 11:25:53;;;;;;;7.20;5.07;;;;;;;11.16;62.13;101817.75;5053409;28;20082;-38
2024/01/30 11:28:20;;;;;;;5.47;4.70;;;;;;;11.36;61.21;101816.50;5053157;28;20087;-39
2024/01/30 11:30:47;;;;;;;5.97;4.30;;;;;;;11.74;60.99;101812.41;5053174;28;20488;-35
2024/01/30 11:33:14;;;;;;;6.37;5.43;;;;;;;11.77;61.42;101814.25;5053324;28;20036;-35
2024/01/30 11:35:44;;;;;;;5.93;4.30;;;;;;;12.93;57.07;101811.84;5053424;28;20130;-33
2024/01/30 11:38:11;;;;;;;6.13;4.40;;;;;;;12.64;58.17;101818.09;5052965;28;20492;-36
2024/01/30 11:40:38;;;;;;;6.65;4.50;;;;;;;13.22;56.43;101810.34;5053079;28;20063;-37
2024/01/30 11:43:05;;;;;;;4.90;4.40;;;;;;;12.67;57.60;101802.38;5053188;28;20112;-33
2024/01/30 11:45:32;;;;;;;5.65;4.18;;;;;;;13.23;55.74;101814.72;5052978;28;20044;-34
2024/01/30 11:48:00;;;;;;;6.07;5.00;;;;;;;12.52;58.33;101817.09;5052981;28;20454;-37
2024/01/30 11:50:25;;;;;;;6.10;4.47;;;;;;;12.70;56.88;101809.81;5052888;28;20047;-34
2024/01/30 11:52:51;;;;;;;6.82;4.82;;;;;;;12.94;54.83;101799.41;5052979;28;20502;-33
2024/01/30 11:55:17;;;;;;;5.78;4.45;;;;;;;12.96;56.26;101807.31;5052867;28;20041;-36
2024/01/30 11:57:44;;;;;;;5.53;4.93;;;;;;;13.42;55.30;101804.94;5052374;28;20108;-34
2024/01/30 12:00:18;;;;;;;5.55;4.40;;;;;;;13.88;54.43;101801.63;5052337;28;20040;-33
2024/01/30 12:02:51;;;;;;;6.78;4.80;;;;;;;12.28;57.38;101783.47;5052584;28;20033;-35
2024/01/30 12:05:16;;;;;;;7.50;4.63;;;;;;;12.32;57.91;101788.91;5052685;28;20032;-33
2024/01/30 12:07:46;;;;;;;5.65;4.50;;;;;;;11.88;59.14;101784.59;5052681;28;20021;-33
2024/01/30 12:10:13;;;;;;;7.05;4.65;;;;;;;11.94;58.89;101776.34;5052498;28;20029;-35
2024/01/30 12:12:40;;;;;;;6.65;4.50;;;;;;;11.80;59.00;101771.38;5052359;28;20069;-37
2024/01/30 12:15:07;;;;;;;5.57;4.40;;;;;;;12.03;58.26;101778.31;5052784;28;20033;-36
2024/01/30 12:17:34;;;;;;;5.40;4.15;;;;;;;11.75;60.12;101783.19;5052274;28;20604;-36
2024/01/30 12:20:06;;;;;;;5.63;4.28;;;;;;;11.41;61.73;101779.56;5052515;28;20040;-33
2024/01/30 12:22:36;;;;;;;5.90;4.43;;;;;;;11.53;61.38;101761.06;5052533;28;20396;-33
2024/01/30 12:25:01;;;;;;;5.78;4.13;;;;;;;11.59;60.36;101759.97;5052258;28;20028;-37
2024/01/30 12:27:27;;;;;;;6.05;4.55;;;;;;;11.64;60.59;101755.75;5051989;28;20045;-33
2024/01/30 12:29:58;;;;;;;6.05;4.68;;;;;;;12.04;61.11;101751.91;5051795;28;20033;-39
2024/01/30 12:32:24;;;;;;;6.18;4.30;;;;;;;12.51;58.89;101747.59;5052025;28;20037;-35
2024/01/30 12:34:49;;;;;;;7.35;4.10;;;;;;;12.14;60.21;101747.03;5052147;28;20556;-37
2024/01/30 12:37:19;;;;;;;8.18;4.85;;;;;;;12.13;59.86;101763.03;5051674;28;20048;-33
2024/01/30 12:39:45;;;;;;;5.35;4.55;;;;;;;12.12;60.38;101755.91;5051809;28;20029;-34
2024/01/30 12:42:10;;;;;;;5.70;4.28;;;;;;;11.30;63.40;101765.28;5051827;28;20024;-32
2024/01/30 12:44:36;;;;;;;9.90;4.53;;;;;;;11.56;61.88;101766.50;5051732;28;20045;-33
2024/01/30 12:47:05;;;;;;;7.10;5.32;;;;;;;11.67;61.76;101768.78;5050321;28;20051;-38
2024/01/30 12:49:30;;;;;;;6.80;5.00;;;;;;;11.63;61.93;101763.34;5051658;28;20122;-37
2024/01/30 12:51:56;;;;;;;5.82;4.72;;;;;;;11.95;61.23;101761.09;5051684;28;20060;-36
2024/01/30 12:54:23;;;;;;;5.57;4.40;;;;;;;11.52;63.79;101768.66;5051615;28;20033;-39
2024/01/30 12:56:48;;;;;;;6.70;5.63;;;;;;;11.70;62.47;101765.03;5051443;28;20036;-33
2024/01/30 12:59:13;;;;;;;7.55;4.55;;;;;;;11.71;62.23;101761.00;5051159;28;20408;-36
2024/01/30 13:01:39;;;;;;;7.00;4.75;;;;;;;11.96;61.92;101765.44;5050930;28;20485;-34
2024/01/30 13:04:04;;;;;;;10.18;5.15;;;;;;;11.86;62.71;101764.72;5047932;28;20094;-36
2024/01/30 13:06:30;;;;;;;7.45;4.88;;;;;;;12.11;61.20;101765.53;5050997;28;20041;-37
2024/01/30 13:08:55;;;;;;;6.00;4.90;;;;;;;12.12;61.42;101758.69;5048134;28;20056;-34
2024/01/30 13:11:20;;;;;;;6.90;4.30;;;;;;;11.80;63.57;101757.41;5051231;28;20458;-42
2024/01/30 13:13:46;;;;;;;7.00;4.40;;;;;;;12.52;61.92;101757.53;5051448;28;20061;-35
2024/01/30 13:16:11;;;;;;;8.38;5.05;;;;;;;12.62;60.88;101755.47;5051393;28;20115;-34
2024/01/30 13:18:37;;;;;;;6.82;4.57;;;;;;;12.76;60.07;101754.72;5051256;28;20060;-35
2024/01/30 13:21:02;;;;;;;5.35;4.65;;;;;;;12.45;61.40;101758.66;5051250;28;20090;-34
2024/01/30 13:23:28;;;;;;;5.88;5.00;;;;;;;12.53;61.85;101753.50;5051321;28;20116;-37
2024/01/30 13:25:57;;;;;;;6.63;5.35;;;;;;;11.96;63.11;101759.84;5051312;28;20037;-34
2024/01/30 13:28:23;;;;;;;7.75;5.43;;;;;;;11.67;64.35;101768.78;5050795;28;20048;-34
2024/01/30 13:30:49;;;;;;;7.85;5.32;;;;;;;11.66;65.79;101753.25;5050584;28;20045;-34
2024/01/30 13:33:14;;;;;;;7.63;5.13;;;;;;;12.03;65.45;101756.72;5048124;28;20041;-37
2024/01/30 13:35:39;;;;;;;6.57;4.78;;;;;;;11.61;67.08;101763.03;5049998;28;20040;-33
2024/01/30 13:38:05;;;;;;;8.43;5.70;;;;;;;11.85;66.48;101768.00;5047751;28;20458;-38
2024/01/30 13:40:30;;;;;;;7.60;5.65;;;;;;;11.63;68.01;101779.34;5049566;28;20056;-41
2024/01/30 13:42:56;;;;;;;6.93;5.43;;;;;;;11.35;67.62;101773.81;5052610;28;20063;-37
2024/01/30 13:45:21;;;;;;;7.70;5.45;;;;;;;11.19;69.34;101783.28;5054974;28;20408;-41
2024/01/30 13:47:46;;;;;;;7.68;5.45;;;;;;;11.29;68.78;101784.06;5054824;28;20032;-36
2024/01/30 13:50:15;;;;;;;7.00;5.50;;;;;;;11.01;70.32;101771.34;5052005;28;20033;-34
2024/01/30 13:52:41;;;;;;;7.28;5.80;;;;;;;11.05;72.63;101783.16;5053704;28;20571;-38
2024/01/30 13:55:06;;;;;;;11.60;5.50;;;;;;;11.10;71.06;101777.72;5052169;28;20392;-39
2024/01/30 13:57:35;;;;;;;8.18;5.72;;;;;;;11.30;70.70;101780.03;5054354;28;20040;-36
2024/01/30 14:00:00;;;;;;;7.45;5.20;;;;;;;11.33;67.74;101767.13;5052079;28;20650;-33
2024/01/30 14:02:25;;;;;;;7.25;5.75;;;;;;;11.39;67.34;101773.66;5054791;28;20029;-34
2024/01/30 14:04:51;;;;;;;6.72;5.18;;;;;;;11.07;69.23;101773.06;5054576;28;20037;-36
2024/01/30 14:07:18;;;;;;;7.78;5.90;;;;;;;11.57;67.39;101768.03;5051404;28;20037;-35
2024/01/30 14:09:44;;;;;;;6.95;5.28;;;;;;;11.46;67.05;101767.75;5054310;28;20491;-33
2024/01/30 14:12:09;;;;;;;10.38;5.63;;;;;;;11.42;69.08;101772.72;5051585;28;20166;-38
2024/01/30 14:14:35;;;;;;;7.78;5.10;;;;;;;11.19;69.53;101774.91;5054664;28;20124;-35
2024/01/30 14:17:01;;;;;;;7.65;5.38;;;;;;;11.25;69.38;101779.88;5054491;28;20036;-36
2024/01/30 14:19:26;;;;;;;8.52;6.00;;;;;;;11.46;69.01;101776.16;5054380;28;20033;-33
2024/01/30 14:21:52;;;;;;;8.60;5.78;;;;;;;11.16;70.17;101775.84;5054503;28;20032;-34
2024/01/30 14:24:17;;;;;;;7.15;5.53;;;;;;;11.09;71.13;101781.75;5054493;28;20099;-35
2024/01/30 14:26:42;;;;;;;11.10;5.22;;;;;;;10.90;71.99;101780.19;5054288;28;20033;-35
2024/01/30 14:29:08;;;;;;;7.05;5.45;;;;;;;10.80;74.19;101778.66;5054329;28;20068;-34
2024/01/30 14:31:33;;;;;;;7.13;5.60;;;;;;;10.64;74.85;101782.50;5054009;28;20084;-34
2024/01/30 14:33:59;;;;;;;7.93;4.90;;;;;;;10.32;77.15;101779.03;5051186;28;20489;-34
2024/01/30 14:36:27;;;;;;;6.55;5.22;;;;;;;10.82;74.88;101774.16;5053721;28;20838;-36
2024/01/30 14:38:54;;;;;;;5.85;4.80;;;;;;;10.70;75.72;101777.88;5053807;28;20056;-38
2024/01/30 14:41:19;;;;;;;8.05;5.35;;;;;;;10.78;75.56;101775.53;5054061;28;20044;-37
2024/01/30 14:43:44;;;;;;;6.00;5.07;;;;;;;10.50;77.48;101778.31;5054214;28;20037;-33
2024/01/30 14:46:11;;;;;;;7.78;5.28;;;;;;;10.77;76.15;101777.56;5054087;28;20033;-34
2024/01/30 14:48:36;;;;;;;6.63;4.97;;;;;;;10.78;75.83;101772.75;5053940;28;20041;-34
2024/01/30 14:51:01;;;;;;;6.47;4.80;;;;;;;10.78;75.55;101769.97;5053781;28;20143;-36
2024/01/30 14:53:27;;;;;;;7.03;5.55;;;;;;;10.40;79.48;101768.34;5053806;28;20037;-33
2024/01/30 14:55:53;;;;;;;8.30;5.22;;;;;;;10.72;77.23;101775.38;5053838;28;20045;-34
2024/01/30 14:58:19;;;;;;;8.32;5.78;;;;;;;10.59;79.13;101771.94;5053759;28;20043;-34
2024/01/30 15:00:44;;;;;;;7.22;5.15;;;;;;;10.58;79.05;101773.97;5053780;28;20550;-36
2024/01/30 15:03:10;;;;;;;7.18;5.72;;;;;;;10.14;83.28;101774.13;5053768;28;20033;-38
2024/01/30 15:05:35;;;;;;;7.47;5.55;;;;;;;10.36;80.97;101771.28;5049619;28;20416;-38
2024/01/30 15:08:01;;;;;;;7.20;5.80;;;;;;;10.35;80.94;101778.09;5053528;28;20033;-33
2024/01/30 15:10:26;;;;;;;6.53;5.40;;;;;;;10.35;81.37;101775.31;5053468;28;20044;-33
2024/01/30 15:12:52;;;;;;;8.52;5.78;;;;;;;10.22;81.34;101777.41;5053628;28;20033;-35
2024/01/30 15:15:17;;;;;;;7.78;5.97;;;;;;;10.17;82.44;101784.34;5053610;28;20037;-34
2024/01/30 15:17:42;;;;;;;7.07;5.60;;;;;;;10.23;81.11;101785.31;5053269;28;20120;-34
2024/01/30 15:20:08;;;;;;;7.70;5.75;;;;;;;10.19;82.31;101790.25;5053321;28;20500;-33
2024/01/30 15:22:34;;;;;;;8.30;4.93;;;;;;;10.28;81.66;101786.75;5053451;28;20041;-36
2024/01/30 15:24:59;;;;;;;6.70;5.28;;;;;;;10.21;82.73;101789.81;5053410;28;20033;-33
2024/01/30 15:27:25;;;;;;;6.38;5.25;;;;;;;9.97;85.22;101789.56;5053052;28;20068;-34
2024/01/30 15:29:50;;;;;;;9.63;5.45;;;;;;;9.99;85.70;101793.44;5053235;28;20033;-34
2024/01/30 15:32:16;;;;;;;6.55;5.10;;;;;;;10.08;85.51;101801.06;5053166;28;20116;-39
2024/01/30 15:34:41;;;;;;;8.07;4.85;;;;;;;10.06;84.13;101791.63;5053058;28;20091;-35
2024/01/30 15:37:07;;;;;;;6.43;5.00;;;;;;;10.17;83.92;101795.50;5053106;28;20488;-34
2024/01/30 15:39:32;;;;;;;7.60;4.97;;;;;;;10.26;83.64;101790.00;5053043;28;20041;-38
2024/01/30 15:41:58;;;;;;;6.93;4.85;;;;;;;10.21;83.75;101798.97;5053099;28;20024;-34
2024/01/30 15:44:24;;;;;;;5.95;4.53;;;;;;;10.25;83.55;101793.22;5052916;28;20171;-34
2024/01/30 15:46:49;;;;;;;6.90;4.95;;;;;;;10.12;84.99;101795.34;5052954;28;20123;-35
2024/01/30 15:49:15;;;;;;;9.88;5.55;;;;;;;10.23;82.92;101793.69;5052568;28;20110;-35
2024/01/30 15:51:40;;;;;;;6.32;5.03;;;;;;;10.10;84.91;101800.59;5052703;28;20037;-40
2024/01/30 15:54:05;;;;;;;6.28;4.75;;;;;;;10.16;84.72;101807.91;5052912;28;20549;-34
2024/01/30 15:56:31;;;;;;;7.78;5.18;;;;;;;9.92;86.20;101809.66;5052593;28;20052;-35
2024/01/30 15:58:56;;;;;;;8.63;5.53;;;;;;;9.99;86.42;101803.81;5052315;28;20032;-36
2024/01/30 16:01:22;;;;;;;9.27;5.72;;;;;;;9.91;87.32;101814.47;5052623;28;20060;-39
2024/01/30 16:03:48;;;;;;;8.50;5.10;;;;;;;9.96;87.56;101818.69;5052640;28;20095;-34
2024/01/30 16:06:14;;;;;;;7.65;5.18;;;;;;;9.78;88.85;101806.19;5051425;28;20041;-38
2024/01/30 16:08:41;;;;;;;6.80;4.43;;;;;;;9.70;89.40;101816.06;5052218;28;20033;-35
2024/01/30 16:11:07;;;;;;;6.38;5.03;;;;;;;9.67;90.87;101810.63;5051011;28;20044;-35
2024/01/30 16:13:35;;;;;;;7.75;4.93;;;;;;;9.49;92.87;101822.41;5050377;28;20040;-38
2024/01/30 16:16:00;;;;;;;10.63;5.60;;;;;;;9.38;93.72;101836.75;5051265;28;20036;-42
2024/01/30 16:18:26;;;;;;;6.43;4.82;;;;;;;9.31;94.13;101825.84;5050919;28;20525;-35
2024/01/30 16:20:51;;;;;;;5.35;4.32;;;;;;;9.25;95.46;101830.44;5051571;28;20044;-35
2024/01/30 16:23:17;;;;;;;6.25;4.38;;;;;;;9.45;93.27;101836.47;5052064;28;20037;-35
2024/01/30 16:25:44;;;;;;;6.28;4.03;;;;;;;9.14;95.94;101832.81;5051959;28;20058;-34
2024/01/30 16:28:09;;;;;;;7.18;4.18;;;;;;;9.17;96.15;101835.47;5051976;28;20116;-35
2024/01/30 16:30:34;;;;;;;6.63;4.25;;;;;;;9.22;95.32;101826.56;5051942;28;20083;-39
2024/01/30 16:33:00;;;;;;;8.60;4.60;;;;;;;9.28;95.72;101837.91;5052083;28;20028;-34
2024/01/30 16:35:26;;;;;;;5.63;4.00;;;;;;;9.27;94.95;101839.88;5051954;28;20041;-34
2024/01/30 16:37:51;;;;;;;5.82;4.10;;;;;;;9.17;96.20;101841.03;5051839;28;20036;-35
2024/01/30 16:40:17;;;;;;;6.93;4.85;;;;;;;9.21;96.88;101840.91;5052126;28;20037;-39
2024/01/30 16:42:42;;;;;;;6.25;4.57;;;;;;;9.19;97.64;101848.97;5051988;28;20455;-34